Terminal Aerodrome Forecast
Issued by NWS

Home | Current Version | Previous Version | Text Only | Print | Product List | Glossary On
Versions: 1 2 3 4 5 6 7 8 9 10 11 12 13 14 15 16 17 18 19 20 21
000
FTUS42 KMLB 210500
TAFISM
TAF
KISM 210531Z 2106/2206 35006KT P6SM FEW015 BKN020 OVC025
     FM211500 36010KT P6SM SCT025 BKN035
     FM212300 02008KT P6SM FEW025 SCT250
      AMD NOT SKED TIL 211100=

USA.gov is the U.S. government's official web portal to all federal, state and local government web resources and services.